メインページ
METAR-TAF:

METAR-TAF

空港 :

昆明長水国際空港

昆明, 中華人民共和国

緯度: 25-01N, 経度: 102-41E, 海抜: 1892m

現時点の気象観測

当レポートは1時間5分前の03:00(UTC)に作成
南/南西の風 10kt、から西/南西の間で変化する
気温 23°C
湿度 50%
気圧 1023 hPa
視程10km以上
高度2600ftの雲はほとんどない

METAR: ZPPP 220300Z 21005MPS 170V250 9999 FEW026 23/12 Q1023 NOSIG

時間: 12:05 (04:05 UTC)

予報

当レポートは8時間54分前の19:11(UTC)に作成
予報は22日の 00時(UTC)から 22日の 24時(UTC)まで有効
南西の風 12kt
視程10km以上
高度2600ftの雲は散在している

TAF: ZPPP 211911Z 2200/2224 22006MPS 9999 SCT026 TX25/2208Z TN15/2223Z

4,000以上の空港の気象観測と天気予報(METAR報とTAF報)

利用可能な観測所は地図上に黄色い丸と赤い丸で示す。

丸の上にカーソルを重ねると観測所名を参照できる。

次にクリックすると気象観測と天気予報を参照できる。

マップの切り替え:黒色「×」印の緑ボタンをクリックして拡大、「-」印の緑ボタンをクリックして縮小、緑色の三角印をクリックして隣りの地図に切り替え


METAR-TAF: